sensor_id;sensor_type;location;lat;lon;timestamp;P1;durP1;ratioP1;P2;durP2;ratioP2
80247;SDS011;69560;52.206;21.018;2023-09-12T00:00:25;19.00;;;17.10;;
80247;SDS011;69560;52.206;21.018;2023-09-12T00:03:12;20.40;;;17.50;;
80247;SDS011;69560;52.206;21.018;2023-09-12T00:05:38;19.70;;;17.60;;
80247;SDS011;69560;52.206;21.018;2023-09-12T00:08:05;23.20;;;17.60;;
80247;SDS011;69560;52.206;21.018;2023-09-12T00:10:31;20.30;;;18.10;;
80247;SDS011;69560;52.206;21.018;2023-09-12T00:12:58;22.40;;;18.00;;
80247;SDS011;69560;52.206;21.018;2023-09-12T00:15:27;24.20;;;18.90;;
80247;SDS011;69560;52.206;21.018;2023-09-12T00:17:53;20.70;;;18.50;;
80247;SDS011;69560;52.206;21.018;2023-09-12T00:20:19;19.90;;;17.80;;
80247;SDS011;69560;52.206;21.018;2023-09-12T00:22:46;23.80;;;19.10;;
80247;SDS011;69560;52.206;21.018;2023-09-12T00:25:13;23.80;;;18.80;;
80247;SDS011;69560;52.206;21.018;2023-09-12T00:27:39;21.90;;;18.50;;
80247;SDS011;69560;52.206;21.018;2023-09-12T00:30:06;25.20;;;19.80;;
80247;SDS011;69560;52.206;21.018;2023-09-12T00:32:33;22.10;;;19.70;;
80247;SDS011;69560;52.206;21.018;2023-09-12T00:34:59;25.40;;;19.50;;
80247;SDS011;69560;52.206;21.018;2023-09-12T00:37:25;25.00;;;18.80;;
80247;SDS011;69560;52.206;21.018;2023-09-12T00:39:52;24.40;;;18.20;;
80247;SDS011;69560;52.206;21.018;2023-09-12T00:42:18;23.00;;;19.10;;
80247;SDS011;69560;52.206;21.018;2023-09-12T00:44:45;21.60;;;19.30;;
80247;SDS011;69560;52.206;21.018;2023-09-12T00:47:12;25.20;;;19.20;;
80247;SDS011;69560;52.206;21.018;2023-09-12T00:49:40;26.40;;;19.30;;
80247;SDS011;69560;52.206;21.018;2023-09-12T00:52:06;21.60;;;18.40;;
80247;SDS011;69560;52.206;21.018;2023-09-12T00:54:34;21.20;;;17.80;;
80247;SDS011;69560;52.206;21.018;2023-09-12T00:57:01;21.90;;;17.50;;
80247;SDS011;69560;52.206;21.018;2023-09-12T00:59:28;22.20;;;19.30;;
80247;SDS011;69560;52.206;21.018;2023-09-12T01:01:55;24.30;;;20.90;;
80247;SDS011;69560;52.206;21.018;2023-09-12T01:04:22;24.10;;;20.20;;
80247;SDS011;69560;52.206;21.018;2023-09-12T01:06:49;22.80;;;20.40;;
80247;SDS011;69560;52.206;21.018;2023-09-12T01:09:15;25.30;;;21.60;;
80247;SDS011;69560;52.206;21.018;2023-09-12T01:11:43;26.10;;;21.60;;
80247;SDS011;69560;52.206;21.018;2023-09-12T01:14:10;26.70;;;21.40;;
80247;SDS011;69560;52.206;21.018;2023-09-12T01:16:37;26.00;;;21.70;;
80247;SDS011;69560;52.206;21.018;2023-09-12T01:19:03;27.10;;;21.60;;
80247;SDS011;69560;52.206;21.018;2023-09-12T01:29:59;21.30;;;19.10;;
80247;SDS011;69560;52.206;21.018;2023-09-12T01:32:29;24.40;;;20.40;;
80247;SDS011;69560;52.206;21.018;2023-09-12T01:34:57;24.60;;;20.90;;
80247;SDS011;69560;52.206;21.018;2023-09-12T01:37:23;32.60;;;22.80;;
80247;SDS011;69560;52.206;21.018;2023-09-12T01:39:50;25.70;;;21.30;;
80247;SDS011;69560;52.206;21.018;2023-09-12T01:42:17;23.90;;;21.30;;
80247;SDS011;69560;52.206;21.018;2023-09-12T01:44:46;27.40;;;22.70;;
80247;SDS011;69560;52.206;21.018;2023-09-12T01:47:15;28.00;;;23.00;;
80247;SDS011;69560;52.206;21.018;2023-09-12T01:49:45;27.90;;;23.50;;
80247;SDS011;69560;52.206;21.018;2023-09-12T01:52:15;27.60;;;23.60;;
80247;SDS011;69560;52.206;21.018;2023-09-12T01:54:42;26.50;;;22.40;;
80247;SDS011;69560;52.206;21.018;2023-09-12T01:57:11;24.00;;;21.10;;
80247;SDS011;69560;52.206;21.018;2023-09-12T01:59:38;26.50;;;21.30;;
80247;SDS011;69560;52.206;21.018;2023-09-12T02:02:05;24.30;;;20.80;;
80247;SDS011;69560;52.206;21.018;2023-09-12T02:04:33;25.10;;;21.30;;
80247;SDS011;69560;52.206;21.018;2023-09-12T02:06:59;26.10;;;21.70;;
80247;SDS011;69560;52.206;21.018;2023-09-12T02:09:26;26.90;;;22.70;;
80247;SDS011;69560;52.206;21.018;2023-09-12T02:11:52;23.50;;;21.20;;
80247;SDS011;69560;52.206;21.018;2023-09-12T02:14:19;25.50;;;22.60;;
80247;SDS011;69560;52.206;21.018;2023-09-12T02:16:45;25.60;;;22.30;;
80247;SDS011;69560;52.206;21.018;2023-09-12T02:19:12;27.10;;;22.50;;
80247;SDS011;69560;52.206;21.018;2023-09-12T02:21:38;29.70;;;22.90;;
80247;SDS011;69560;52.206;21.018;2023-09-12T02:24:05;25.40;;;22.60;;
80247;SDS011;69560;52.206;21.018;2023-09-12T02:26:32;25.50;;;22.50;;
80247;SDS011;69560;52.206;21.018;2023-09-12T02:31:30;23.90;;;20.20;;
80247;SDS011;69560;52.206;21.018;2023-09-12T02:33:56;26.80;;;20.90;;
80247;SDS011;69560;52.206;21.018;2023-09-12T02:36:23;22.60;;;20.40;;
80247;SDS011;69560;52.206;21.018;2023-09-12T02:38:49;24.10;;;21.60;;
80247;SDS011;69560;52.206;21.018;2023-09-12T02:41:16;27.70;;;21.60;;
80247;SDS011;69560;52.206;21.018;2023-09-12T02:43:42;27.80;;;22.70;;
80247;SDS011;69560;52.206;21.018;2023-09-12T02:46:08;24.60;;;22.00;;
80247;SDS011;69560;52.206;21.018;2023-09-12T02:48:35;28.10;;;22.70;;
80247;SDS011;69560;52.206;21.018;2023-09-12T02:51:01;24.60;;;22.00;;
80247;SDS011;69560;52.206;21.018;2023-09-12T02:53:28;26.60;;;22.90;;
80247;SDS011;69560;52.206;21.018;2023-09-12T02:55:54;26.60;;;22.80;;
80247;SDS011;69560;52.206;21.018;2023-09-12T02:58:21;26.30;;;22.40;;
80247;SDS011;69560;52.206;21.018;2023-09-12T03:00:48;23.90;;;21.30;;
80247;SDS011;69560;52.206;21.018;2023-09-12T03:03:16;27.40;;;22.30;;
80247;SDS011;69560;52.206;21.018;2023-09-12T03:05:43;23.90;;;21.40;;
80247;SDS011;69560;52.206;21.018;2023-09-12T03:08:10;27.00;;;22.10;;
80247;SDS011;69560;52.206;21.018;2023-09-12T03:10:36;27.70;;;22.20;;
80247;SDS011;69560;52.206;21.018;2023-09-12T03:13:03;28.90;;;22.10;;
80247;SDS011;69560;52.206;21.018;2023-09-12T03:15:29;27.20;;;23.10;;
80247;SDS011;69560;52.206;21.018;2023-09-12T03:18:01;28.20;;;24.10;;
80247;SDS011;69560;52.206;21.018;2023-09-12T03:20:28;26.60;;;23.20;;
80247;SDS011;69560;52.206;21.018;2023-09-12T03:22:54;26.20;;;22.60;;
80247;SDS011;69560;52.206;21.018;2023-09-12T03:25:20;29.10;;;22.90;;
80247;SDS011;69560;52.206;21.018;2023-09-12T03:27:47;28.10;;;23.10;;
80247;SDS011;69560;52.206;21.018;2023-09-12T03:30:13;27.00;;;23.40;;
80247;SDS011;69560;52.206;21.018;2023-09-12T03:32:40;32.10;;;24.00;;
80247;SDS011;69560;52.206;21.018;2023-09-12T03:35:06;29.40;;;24.50;;
80247;SDS011;69560;52.206;21.018;2023-09-12T03:37:33;30.30;;;26.20;;
80247;SDS011;69560;52.206;21.018;2023-09-12T03:40:00;33.20;;;25.90;;
80247;SDS011;69560;52.206;21.018;2023-09-12T03:42:26;33.20;;;26.60;;
80247;SDS011;69560;52.206;21.018;2023-09-12T03:44:53;28.90;;;25.60;;
80247;SDS011;69560;52.206;21.018;2023-09-12T03:47:19;32.00;;;23.50;;
80247;SDS011;69560;52.206;21.018;2023-09-12T03:49:46;26.20;;;23.40;;
80247;SDS011;69560;52.206;21.018;2023-09-12T03:52:12;27.70;;;22.90;;
80247;SDS011;69560;52.206;21.018;2023-09-12T03:54:39;26.20;;;22.20;;
80247;SDS011;69560;52.206;21.018;2023-09-12T03:57:05;31.30;;;22.80;;
80247;SDS011;69560;52.206;21.018;2023-09-12T03:59:32;29.00;;;22.40;;
80247;SDS011;69560;52.206;21.018;2023-09-12T04:01:58;27.90;;;23.00;;
80247;SDS011;69560;52.206;21.018;2023-09-12T04:04:24;27.70;;;24.20;;
80247;SDS011;69560;52.206;21.018;2023-09-12T04:06:51;30.10;;;24.20;;
80247;SDS011;69560;52.206;21.018;2023-09-12T04:09:18;27.60;;;24.30;;
80247;SDS011;69560;52.206;21.018;2023-09-12T04:11:44;28.30;;;25.10;;
80247;SDS011;69560;52.206;21.018;2023-09-12T04:14:10;26.60;;;23.70;;
80247;SDS011;69560;52.206;21.018;2023-09-12T04:16:37;28.50;;;23.80;;
80247;SDS011;69560;52.206;21.018;2023-09-12T04:19:03;29.00;;;23.10;;
80247;SDS011;69560;52.206;21.018;2023-09-12T04:21:30;30.80;;;23.80;;
80247;SDS011;69560;52.206;21.018;2023-09-12T04:23:56;26.10;;;23.30;;
80247;SDS011;69560;52.206;21.018;2023-09-12T04:26:23;31.40;;;24.80;;
80247;SDS011;69560;52.206;21.018;2023-09-12T04:28:49;29.30;;;24.80;;
80247;SDS011;69560;52.206;21.018;2023-09-12T04:31:16;28.20;;;25.10;;
80247;SDS011;69560;52.206;21.018;2023-09-12T04:33:42;31.70;;;25.20;;
80247;SDS011;69560;52.206;21.018;2023-09-12T04:36:09;30.90;;;25.40;;
80247;SDS011;69560;52.206;21.018;2023-09-12T04:38:35;31.80;;;24.50;;
80247;SDS011;69560;52.206;21.018;2023-09-12T04:41:03;30.10;;;24.20;;
80247;SDS011;69560;52.206;21.018;2023-09-12T04:43:32;30.00;;;24.10;;
80247;SDS011;69560;52.206;21.018;2023-09-12T04:45:58;31.00;;;24.50;;
80247;SDS011;69560;52.206;21.018;2023-09-12T04:48:25;32.40;;;25.40;;
80247;SDS011;69560;52.206;21.018;2023-09-12T04:50:52;33.00;;;25.00;;
80247;SDS011;69560;52.206;21.018;2023-09-12T04:53:19;29.10;;;24.90;;
80247;SDS011;69560;52.206;21.018;2023-09-12T04:55:45;32.90;;;25.90;;
80247;SDS011;69560;52.206;21.018;2023-09-12T04:58:11;29.20;;;25.10;;
80247;SDS011;69560;52.206;21.018;2023-09-12T05:00:38;28.40;;;25.00;;
80247;SDS011;69560;52.206;21.018;2023-09-12T05:03:06;33.50;;;25.70;;
80247;SDS011;69560;52.206;21.018;2023-09-12T05:05:34;29.70;;;25.00;;
80247;SDS011;69560;52.206;21.018;2023-09-12T05:08:02;28.40;;;23.50;;
80247;SDS011;69560;52.206;21.018;2023-09-12T05:10:30;29.00;;;24.20;;
80247;SDS011;69560;52.206;21.018;2023-09-12T05:12:57;28.90;;;25.20;;
80247;SDS011;69560;52.206;21.018;2023-09-12T05:15:23;28.80;;;25.20;;
80247;SDS011;69560;52.206;21.018;2023-09-12T05:17:50;31.70;;;26.20;;
80247;SDS011;69560;52.206;21.018;2023-09-12T05:20:16;34.50;;;25.70;;
80247;SDS011;69560;52.206;21.018;2023-09-12T05:22:43;32.30;;;25.30;;
80247;SDS011;69560;52.206;21.018;2023-09-12T05:25:09;33.50;;;26.80;;
80247;SDS011;69560;52.206;21.018;2023-09-12T05:27:36;30.20;;;25.90;;
80247;SDS011;69560;52.206;21.018;2023-09-12T05:30:03;27.60;;;24.60;;
80247;SDS011;69560;52.206;21.018;2023-09-12T05:32:30;31.80;;;25.10;;
80247;SDS011;69560;52.206;21.018;2023-09-12T05:34:57;27.70;;;24.80;;
80247;SDS011;69560;52.206;21.018;2023-09-12T05:37:23;28.70;;;24.60;;
80247;SDS011;69560;52.206;21.018;2023-09-12T05:39:50;31.00;;;25.60;;
80247;SDS011;69560;52.206;21.018;2023-09-12T05:42:16;34.20;;;25.90;;
80247;SDS011;69560;52.206;21.018;2023-09-12T05:47:15;28.70;;;25.50;;
80247;SDS011;69560;52.206;21.018;2023-09-12T05:49:42;36.50;;;27.30;;
80247;SDS011;69560;52.206;21.018;2023-09-12T05:52:08;33.60;;;27.60;;
80247;SDS011;69560;52.206;21.018;2023-09-12T05:54:34;32.20;;;25.90;;
80247;SDS011;69560;52.206;21.018;2023-09-12T05:57:01;31.50;;;26.00;;
80247;SDS011;69560;52.206;21.018;2023-09-12T05:59:28;31.00;;;26.00;;
80247;SDS011;69560;52.206;21.018;2023-09-12T06:01:55;28.80;;;24.50;;
80247;SDS011;69560;52.206;21.018;2023-09-12T06:04:21;29.70;;;26.50;;
80247;SDS011;69560;52.206;21.018;2023-09-12T06:06:48;30.50;;;26.70;;
80247;SDS011;69560;52.206;21.018;2023-09-12T06:09:14;31.70;;;25.70;;
80247;SDS011;69560;52.206;21.018;2023-09-12T06:11:41;30.40;;;25.60;;
80247;SDS011;69560;52.206;21.018;2023-09-12T06:14:07;32.90;;;27.40;;
80247;SDS011;69560;52.206;21.018;2023-09-12T06:16:34;32.80;;;26.20;;
80247;SDS011;69560;52.206;21.018;2023-09-12T06:19:00;30.60;;;25.80;;
80247;SDS011;69560;52.206;21.018;2023-09-12T06:21:27;27.80;;;24.80;;
80247;SDS011;69560;52.206;21.018;2023-09-12T06:24:09;32.30;;;25.50;;
80247;SDS011;69560;52.206;21.018;2023-09-12T06:26:40;30.90;;;26.00;;
80247;SDS011;69560;52.206;21.018;2023-09-12T06:29:06;33.60;;;25.40;;
80247;SDS011;69560;52.206;21.018;2023-09-12T06:31:33;32.90;;;24.70;;
80247;SDS011;69560;52.206;21.018;2023-09-12T06:34:01;28.40;;;25.40;;
80247;SDS011;69560;52.206;21.018;2023-09-12T06:36:28;29.60;;;25.00;;
80247;SDS011;69560;52.206;21.018;2023-09-12T06:38:56;32.10;;;25.10;;
80247;SDS011;69560;52.206;21.018;2023-09-12T06:41:23;31.60;;;25.50;;
80247;SDS011;69560;52.206;21.018;2023-09-12T06:43:50;37.30;;;27.00;;
80247;SDS011;69560;52.206;21.018;2023-09-12T06:46:16;38.30;;;27.70;;
80247;SDS011;69560;52.206;21.018;2023-09-12T06:48:44;29.50;;;24.30;;
80247;SDS011;69560;52.206;21.018;2023-09-12T06:51:11;31.20;;;24.90;;
80247;SDS011;69560;52.206;21.018;2023-09-12T06:53:38;30.70;;;25.00;;
80247;SDS011;69560;52.206;21.018;2023-09-12T06:56:05;31.10;;;23.20;;
80247;SDS011;69560;52.206;21.018;2023-09-12T06:58:32;28.80;;;22.90;;
80247;SDS011;69560;52.206;21.018;2023-09-12T07:01:02;29.30;;;23.60;;
80247;SDS011;69560;52.206;21.018;2023-09-12T07:03:30;27.40;;;23.80;;
80247;SDS011;69560;52.206;21.018;2023-09-12T07:05:58;30.40;;;22.40;;
80247;SDS011;69560;52.206;21.018;2023-09-12T07:08:25;28.90;;;26.00;;
80247;SDS011;69560;52.206;21.018;2023-09-12T07:10:52;30.10;;;25.30;;
80247;SDS011;69560;52.206;21.018;2023-09-12T07:13:23;29.00;;;25.50;;
80247;SDS011;69560;52.206;21.018;2023-09-12T07:15:50;36.00;;;24.80;;
80247;SDS011;69560;52.206;21.018;2023-09-12T07:18:17;33.40;;;24.80;;
80247;SDS011;69560;52.206;21.018;2023-09-12T07:20:45;26.90;;;23.40;;
80247;SDS011;69560;52.206;21.018;2023-09-12T07:23:11;29.70;;;23.30;;
80247;SDS011;69560;52.206;21.018;2023-09-12T07:25:40;25.40;;;22.50;;
80247;SDS011;69560;52.206;21.018;2023-09-12T07:28:08;26.90;;;22.40;;
80247;SDS011;69560;52.206;21.018;2023-09-12T07:30:35;26.20;;;22.30;;
80247;SDS011;69560;52.206;21.018;2023-09-12T07:33:02;28.30;;;21.90;;
80247;SDS011;69560;52.206;21.018;2023-09-12T07:35:30;31.50;;;22.10;;
80247;SDS011;69560;52.206;21.018;2023-09-12T07:37:57;29.70;;;21.00;;
80247;SDS011;69560;52.206;21.018;2023-09-12T07:40:23;25.80;;;21.00;;
80247;SDS011;69560;52.206;21.018;2023-09-12T07:42:50;30.80;;;19.60;;
80247;SDS011;69560;52.206;21.018;2023-09-12T07:45:16;28.10;;;20.00;;
80247;SDS011;69560;52.206;21.018;2023-09-12T07:47:43;26.30;;;19.50;;
80247;SDS011;69560;52.206;21.018;2023-09-12T07:50:10;23.90;;;20.30;;
80247;SDS011;69560;52.206;21.018;2023-09-12T07:52:36;25.60;;;20.40;;
80247;SDS011;69560;52.206;21.018;2023-09-12T07:55:03;27.10;;;19.00;;
80247;SDS011;69560;52.206;21.018;2023-09-12T07:57:30;27.60;;;19.70;;
80247;SDS011;69560;52.206;21.018;2023-09-12T07:59:56;29.40;;;20.10;;
80247;SDS011;69560;52.206;21.018;2023-09-12T08:02:23;28.20;;;19.20;;
80247;SDS011;69560;52.206;21.018;2023-09-12T08:04:50;24.20;;;21.10;;
80247;SDS011;69560;52.206;21.018;2023-09-12T08:07:17;26.60;;;20.00;;
80247;SDS011;69560;52.206;21.018;2023-09-12T08:09:48;26.00;;;19.10;;
80247;SDS011;69560;52.206;21.018;2023-09-12T08:12:17;22.30;;;18.10;;
80247;SDS011;69560;52.206;21.018;2023-09-12T08:14:45;22.70;;;19.80;;
80247;SDS011;69560;52.206;21.018;2023-09-12T08:17:12;20.50;;;18.30;;
80247;SDS011;69560;52.206;21.018;2023-09-12T08:19:39;25.70;;;17.40;;
80247;SDS011;69560;52.206;21.018;2023-09-12T08:22:07;22.60;;;18.00;;
80247;SDS011;69560;52.206;21.018;2023-09-12T08:24:35;20.20;;;16.80;;
80247;SDS011;69560;52.206;21.018;2023-09-12T08:27:02;23.40;;;17.20;;
80247;SDS011;69560;52.206;21.018;2023-09-12T08:29:30;18.90;;;16.90;;
80247;SDS011;69560;52.206;21.018;2023-09-12T08:31:58;20.90;;;15.80;;
80247;SDS011;69560;52.206;21.018;2023-09-12T08:34:25;17.70;;;15.90;;
80247;SDS011;69560;52.206;21.018;2023-09-12T08:36:52;18.90;;;16.40;;
80247;SDS011;69560;52.206;21.018;2023-09-12T08:39:38;18.60;;;15.00;;
80247;SDS011;69560;52.206;21.018;2023-09-12T08:42:12;18.50;;;16.50;;
80247;SDS011;69560;52.206;21.018;2023-09-12T08:44:43;24.20;;;17.60;;
80247;SDS011;69560;52.206;21.018;2023-09-12T08:47:10;21.80;;;16.90;;
80247;SDS011;69560;52.206;21.018;2023-09-12T08:49:38;20.30;;;16.90;;
80247;SDS011;69560;52.206;21.018;2023-09-12T08:52:05;21.30;;;17.50;;
80247;SDS011;69560;52.206;21.018;2023-09-12T08:54:32;19.30;;;16.10;;
80247;SDS011;69560;52.206;21.018;2023-09-12T08:57:00;18.30;;;16.20;;
80247;SDS011;69560;52.206;21.018;2023-09-12T08:59:31;18.90;;;15.90;;
80247;SDS011;69560;52.206;21.018;2023-09-12T09:02:00;22.20;;;16.50;;
80247;SDS011;69560;52.206;21.018;2023-09-12T09:04:30;21.50;;;16.50;;
80247;SDS011;69560;52.206;21.018;2023-09-12T09:11:55;16.80;;;14.00;;
80247;SDS011;69560;52.206;21.018;2023-09-12T09:14:21;22.40;;;14.80;;
80247;SDS011;69560;52.206;21.018;2023-09-12T09:16:48;18.30;;;15.60;;
80247;SDS011;69560;52.206;21.018;2023-09-12T09:19:15;19.80;;;15.20;;
80247;SDS011;69560;52.206;21.018;2023-09-12T09:21:44;19.00;;;14.00;;
80247;SDS011;69560;52.206;21.018;2023-09-12T09:24:12;19.40;;;15.40;;
80247;SDS011;69560;52.206;21.018;2023-09-12T09:26:51;16.20;;;14.50;;
80247;SDS011;69560;52.206;21.018;2023-09-12T09:29:25;16.60;;;14.30;;
80247;SDS011;69560;52.206;21.018;2023-09-12T09:31:51;19.60;;;13.30;;
80247;SDS011;69560;52.206;21.018;2023-09-12T09:34:19;17.90;;;13.60;;
80247;SDS011;69560;52.206;21.018;2023-09-12T09:36:51;15.30;;;12.30;;
80247;SDS011;69560;52.206;21.018;2023-09-12T09:39:19;14.80;;;11.90;;
80247;SDS011;69560;52.206;21.018;2023-09-12T09:41:48;14.40;;;11.50;;
80247;SDS011;69560;52.206;21.018;2023-09-12T09:44:16;15.50;;;11.50;;
80247;SDS011;69560;52.206;21.018;2023-09-12T09:46:43;11.40;;;10.00;;
80247;SDS011;69560;52.206;21.018;2023-09-12T09:49:10;14.70;;;10.70;;
80247;SDS011;69560;52.206;21.018;2023-09-12T09:51:41;14.10;;;9.60;;
80247;SDS011;69560;52.206;21.018;2023-09-12T09:54:11;11.50;;;9.20;;
80247;SDS011;69560;52.206;21.018;2023-09-12T09:56:49;9.30;;;8.50;;
80247;SDS011;69560;52.206;21.018;2023-09-12T09:59:17;14.50;;;8.30;;
80247;SDS011;69560;52.206;21.018;2023-09-12T10:01:45;8.70;;;7.90;;
80247;SDS011;69560;52.206;21.018;2023-09-12T10:06:44;7.60;;;6.30;;
80247;SDS011;69560;52.206;21.018;2023-09-12T10:09:12;8.10;;;6.10;;
80247;SDS011;69560;52.206;21.018;2023-09-12T10:11:40;7.20;;;5.40;;
80247;SDS011;69560;52.206;21.018;2023-09-12T10:14:08;6.30;;;5.70;;
80247;SDS011;69560;52.206;21.018;2023-09-12T10:16:50;5.80;;;5.40;;
80247;SDS011;69560;52.206;21.018;2023-09-12T10:19:19;6.60;;;6.00;;
80247;SDS011;69560;52.206;21.018;2023-09-12T10:21:49;6.60;;;5.50;;
80247;SDS011;69560;52.206;21.018;2023-09-12T10:24:16;5.70;;;5.20;;
80247;SDS011;69560;52.206;21.018;2023-09-12T10:26:43;7.60;;;5.20;;
80247;SDS011;69560;52.206;21.018;2023-09-12T10:31:41;6.90;;;5.00;;
80247;SDS011;69560;52.206;21.018;2023-09-12T10:34:08;8.00;;;4.90;;
80247;SDS011;69560;52.206;21.018;2023-09-12T10:36:39;7.80;;;5.00;;
80247;SDS011;69560;52.206;21.018;2023-09-12T10:39:10;8.40;;;4.40;;
80247;SDS011;69560;52.206;21.018;2023-09-12T10:41:38;7.30;;;4.70;;
80247;SDS011;69560;52.206;21.018;2023-09-12T10:44:07;7.10;;;4.30;;
80247;SDS011;69560;52.206;21.018;2023-09-12T10:46:37;4.80;;;4.10;;
80247;SDS011;69560;52.206;21.018;2023-09-12T10:49:06;4.90;;;4.00;;
80247;SDS011;69560;52.206;21.018;2023-09-12T10:51:37;7.70;;;3.80;;
80247;SDS011;69560;52.206;21.018;2023-09-12T10:54:06;3.90;;;3.60;;
80247;SDS011;69560;52.206;21.018;2023-09-12T10:56:36;4.50;;;3.50;;
80247;SDS011;69560;52.206;21.018;2023-09-12T11:01:39;8.10;;;4.80;;
80247;SDS011;69560;52.206;21.018;2023-09-12T11:06:48;5.70;;;4.60;;
80247;SDS011;69560;52.206;21.018;2023-09-12T11:11:55;5.50;;;5.00;;
80247;SDS011;69560;52.206;21.018;2023-09-12T11:14:22;5.90;;;5.30;;
80247;SDS011;69560;52.206;21.018;2023-09-12T11:19:42;7.30;;;5.90;;
80247;SDS011;69560;52.206;21.018;2023-09-12T11:22:29;5.20;;;4.80;;
80247;SDS011;69560;52.206;21.018;2023-09-12T11:25:01;8.60;;;6.60;;
80247;SDS011;69560;52.206;21.018;2023-09-12T11:27:32;7.90;;;7.10;;
80247;SDS011;69560;52.206;21.018;2023-09-12T11:30:11;9.20;;;7.20;;
80247;SDS011;69560;52.206;21.018;2023-09-12T11:32:39;9.90;;;7.40;;
80247;SDS011;69560;52.206;21.018;2023-09-12T11:35:06;7.30;;;6.60;;
80247;SDS011;69560;52.206;21.018;2023-09-12T11:37:33;7.90;;;7.20;;
80247;SDS011;69560;52.206;21.018;2023-09-12T11:42:41;13.40;;;7.70;;
80247;SDS011;69560;52.206;21.018;2023-09-12T11:45:09;8.30;;;7.40;;
80247;SDS011;69560;52.206;21.018;2023-09-12T11:47:40;10.50;;;7.90;;
80247;SDS011;69560;52.206;21.018;2023-09-12T11:50:08;12.50;;;7.40;;
80247;SDS011;69560;52.206;21.018;2023-09-12T11:52:58;8.70;;;7.90;;
80247;SDS011;69560;52.206;21.018;2023-09-12T11:55:46;10.80;;;8.50;;
80247;SDS011;69560;52.206;21.018;2023-09-12T11:58:14;9.10;;;8.20;;
80247;SDS011;69560;52.206;21.018;2023-09-12T12:00:43;10.60;;;8.90;;
80247;SDS011;69560;52.206;21.018;2023-09-12T12:03:14;9.20;;;8.30;;
80247;SDS011;69560;52.206;21.018;2023-09-12T12:05:41;9.80;;;8.90;;
80247;SDS011;69560;52.206;21.018;2023-09-12T12:08:08;10.40;;;9.50;;
80247;SDS011;69560;52.206;21.018;2023-09-12T12:10:36;10.10;;;9.30;;
80247;SDS011;69560;52.206;21.018;2023-09-12T12:13:05;10.40;;;9.40;;
80247;SDS011;69560;52.206;21.018;2023-09-12T12:15:34;10.50;;;9.20;;
80247;SDS011;69560;52.206;21.018;2023-09-12T12:18:00;9.90;;;9.00;;
80247;SDS011;69560;52.206;21.018;2023-09-12T12:20:27;11.80;;;9.40;;
80247;SDS011;69560;52.206;21.018;2023-09-12T12:22:56;11.30;;;10.20;;
80247;SDS011;69560;52.206;21.018;2023-09-12T12:25:22;12.90;;;9.90;;
80247;SDS011;69560;52.206;21.018;2023-09-12T12:27:50;11.60;;;10.50;;
80247;SDS011;69560;52.206;21.018;2023-09-12T12:30:17;12.50;;;10.10;;
80247;SDS011;69560;52.206;21.018;2023-09-12T12:32:45;11.20;;;10.10;;
80247;SDS011;69560;52.206;21.018;2023-09-12T12:35:17;11.00;;;10.00;;
80247;SDS011;69560;52.206;21.018;2023-09-12T12:37:50;12.70;;;10.00;;
80247;SDS011;69560;52.206;21.018;2023-09-12T12:40:20;11.70;;;10.60;;
80247;SDS011;69560;52.206;21.018;2023-09-12T12:42:47;11.40;;;10.40;;
80247;SDS011;69560;52.206;21.018;2023-09-12T12:45:14;11.20;;;9.80;;
80247;SDS011;69560;52.206;21.018;2023-09-12T12:47:43;11.20;;;10.00;;
80247;SDS011;69560;52.206;21.018;2023-09-12T12:50:11;11.50;;;10.30;;
80247;SDS011;69560;52.206;21.018;2023-09-12T12:52:38;14.00;;;11.00;;
80247;SDS011;69560;52.206;21.018;2023-09-12T12:55:10;12.70;;;11.20;;
80247;SDS011;69560;52.206;21.018;2023-09-12T12:57:37;13.30;;;11.80;;
80247;SDS011;69560;52.206;21.018;2023-09-12T13:00:06;12.50;;;10.40;;
80247;SDS011;69560;52.206;21.018;2023-09-12T13:02:37;12.20;;;10.90;;
80247;SDS011;69560;52.206;21.018;2023-09-12T13:05:06;13.70;;;11.00;;
80247;SDS011;69560;52.206;21.018;2023-09-12T13:07:45;12.90;;;11.30;;
80247;SDS011;69560;52.206;21.018;2023-09-12T13:10:11;12.30;;;10.80;;
80247;SDS011;69560;52.206;21.018;2023-09-12T13:12:38;11.60;;;10.60;;
80247;SDS011;69560;52.206;21.018;2023-09-12T13:15:04;13.00;;;11.20;;
80247;SDS011;69560;52.206;21.018;2023-09-12T13:17:31;12.50;;;11.20;;
80247;SDS011;69560;52.206;21.018;2023-09-12T13:19:58;12.60;;;11.10;;
80247;SDS011;69560;52.206;21.018;2023-09-12T13:22:24;12.70;;;11.40;;
80247;SDS011;69560;52.206;21.018;2023-09-12T13:24:51;13.10;;;11.40;;
80247;SDS011;69560;52.206;21.018;2023-09-12T13:27:17;13.00;;;11.50;;
80247;SDS011;69560;52.206;21.018;2023-09-12T13:29:44;12.30;;;10.90;;
80247;SDS011;69560;52.206;21.018;2023-09-12T13:32:10;12.90;;;11.50;;
80247;SDS011;69560;52.206;21.018;2023-09-12T13:34:38;13.30;;;11.50;;
80247;SDS011;69560;52.206;21.018;2023-09-12T13:37:05;12.40;;;10.90;;
80247;SDS011;69560;52.206;21.018;2023-09-12T13:39:31;24.20;;;11.70;;
80247;SDS011;69560;52.206;21.018;2023-09-12T13:41:58;12.60;;;10.60;;
80247;SDS011;69560;52.206;21.018;2023-09-12T13:44:28;13.20;;;11.50;;
80247;SDS011;69560;52.206;21.018;2023-09-12T13:46:54;12.40;;;11.10;;
80247;SDS011;69560;52.206;21.018;2023-09-12T13:49:21;13.80;;;11.50;;
80247;SDS011;69560;52.206;21.018;2023-09-12T13:51:47;14.90;;;11.60;;
80247;SDS011;69560;52.206;21.018;2023-09-12T13:54:14;12.60;;;11.20;;
80247;SDS011;69560;52.206;21.018;2023-09-12T13:56:41;12.40;;;10.80;;
80247;SDS011;69560;52.206;21.018;2023-09-12T13:59:08;11.90;;;10.90;;
80247;SDS011;69560;52.206;21.018;2023-09-12T14:01:34;11.60;;;10.50;;
80247;SDS011;69560;52.206;21.018;2023-09-12T14:04:02;12.60;;;11.40;;
80247;SDS011;69560;52.206;21.018;2023-09-12T14:06:29;13.00;;;11.40;;
80247;SDS011;69560;52.206;21.018;2023-09-12T14:08:56;15.90;;;12.10;;
80247;SDS011;69560;52.206;21.018;2023-09-12T14:11:22;16.40;;;12.10;;
80247;SDS011;69560;52.206;21.018;2023-09-12T14:13:49;14.80;;;11.60;;
80247;SDS011;69560;52.206;21.018;2023-09-12T14:16:15;14.30;;;11.80;;
80247;SDS011;69560;52.206;21.018;2023-09-12T14:18:42;13.00;;;11.60;;
80247;SDS011;69560;52.206;21.018;2023-09-12T14:21:08;12.90;;;11.60;;
80247;SDS011;69560;52.206;21.018;2023-09-12T14:23:34;13.10;;;11.90;;
80247;SDS011;69560;52.206;21.018;2023-09-12T14:26:01;13.30;;;12.00;;
80247;SDS011;69560;52.206;21.018;2023-09-12T14:28:27;14.70;;;12.80;;
80247;SDS011;69560;52.206;21.018;2023-09-12T14:30:55;12.90;;;11.50;;
80247;SDS011;69560;52.206;21.018;2023-09-12T14:33:21;14.30;;;11.80;;
80247;SDS011;69560;52.206;21.018;2023-09-12T14:35:48;13.40;;;12.10;;
80247;SDS011;69560;52.206;21.018;2023-09-12T14:38:14;13.30;;;11.90;;
80247;SDS011;69560;52.206;21.018;2023-09-12T14:40:41;13.10;;;11.90;;
80247;SDS011;69560;52.206;21.018;2023-09-12T14:43:07;14.50;;;12.60;;
80247;SDS011;69560;52.206;21.018;2023-09-12T14:45:34;12.80;;;11.60;;
80247;SDS011;69560;52.206;21.018;2023-09-12T14:48:00;13.40;;;12.00;;
80247;SDS011;69560;52.206;21.018;2023-09-12T14:50:27;13.60;;;12.20;;
80247;SDS011;69560;52.206;21.018;2023-09-12T14:52:55;18.20;;;12.00;;